Time;durP1;ratioP1;P1;durP2;ratioP2;P2;SDS_P1;SDS_P2;PMS_P1;PMS_P2;Temp;Humidity;BMP_temperature;BMP_pressure;BME280_temperature;BME280_humidity;BME280_pressure;Samples;Min_cycle;Max_cycle;Signal;HPM_P1;HPM_P2
2021/03/11 00:00:55;;;;;;;17.65;8.75;;;9.20;59.60;;;;;;5033661;28;20485;-69
2021/03/11 00:03:23;;;;;;;15.02;7.95;;;9.00;61.70;;;;;;5036395;28;20409;-69
2021/03/11 00:05:50;;;;;;;14.07;7.30;;;8.90;63.90;;;;;;5034702;28;20463;-68
2021/03/11 00:08:17;;;;;;;17.33;8.73;;;8.90;66.10;;;;;;5037887;28;20048;-70
2021/03/11 00:10:43;;;;;;;16.77;8.13;;;9.00;64.70;;;;;;5033004;28;20143;-69
2021/03/11 00:13:10;;;;;;;15.38;8.27;;;9.00;64.60;;;;;;5039241;28;20081;-67
2021/03/11 00:15:39;;;;;;;16.48;8.65;;;8.90;67.70;;;;;;5038519;28;20084;-68
2021/03/11 00:18:06;;;;;;;17.77;8.15;;;8.60;71.10;;;;;;5036781;28;20085;-69
2021/03/11 00:20:34;;;;;;;16.85;8.75;;;8.40;76.10;;;;;;5036763;28;20136;-69
2021/03/11 00:23:00;;;;;;;16.85;8.80;;;8.30;73.30;;;;;;5035227;28;20137;-68
2021/03/11 00:25:29;;;;;;;13.82;7.72;;;8.20;75.60;;;;;;5036911;28;20186;-67
2021/03/11 00:27:55;;;;;;;12.60;5.43;;;8.30;73.20;;;;;;5035376;28;20051;-69
2021/03/11 00:30:23;;;;;;;14.02;7.82;;;8.50;71.50;;;;;;5031559;28;20053;-73
2021/03/11 00:32:50;;;;;;;15.05;8.13;;;8.60;73.20;;;;;;5033427;28;20123;-68
2021/03/11 00:35:17;;;;;;;16.63;7.40;;;8.70;72.00;;;;;;5037487;28;20107;-69
2021/03/11 00:37:45;;;;;;;17.70;7.45;;;8.80;71.00;;;;;;5032943;28;20045;-72
2021/03/11 00:40:14;;;;;;;14.82;6.97;;;8.90;71.60;;;;;;5028201;28;20161;-70
2021/03/11 00:42:40;;;;;;;15.82;6.43;;;8.80;70.60;;;;;;5019703;28;20047;-72
2021/03/11 00:45:09;;;;;;;12.43;7.30;;;8.80;72.30;;;;;;5028056;28;20279;-72
2021/03/11 00:47:35;;;;;;;15.90;7.20;;;8.80;71.60;;;;;;5017099;28;20077;-71
2021/03/11 00:50:04;;;;;;;13.50;7.35;;;8.80;72.00;;;;;;5028045;28;20367;-71
2021/03/11 00:52:30;;;;;;;15.82;8.10;;;8.80;72.10;;;;;;5026141;28;20123;-72
2021/03/11 00:54:56;;;;;;;14.60;7.68;;;8.80;73.00;;;;;;5018665;28;20046;-74
2021/03/11 00:57:23;;;;;;;15.13;7.63;;;8.80;72.70;;;;;;5020139;28;20076;-72
2021/03/11 00:59:49;;;;;;;13.82;7.70;;;8.80;73.00;;;;;;5014874;28;20095;-72
2021/03/11 01:02:16;;;;;;;12.75;7.00;;;8.80;72.10;;;;;;5019843;28;20129;-72
2021/03/11 01:04:43;;;;;;;16.08;7.93;;;8.70;72.50;;;;;;5024089;28;20037;-72
2021/03/11 01:07:10;;;;;;;14.80;8.23;;;8.70;72.30;;;;;;5029090;28;20100;-72
2021/03/11 01:09:37;;;;;;;17.80;7.78;;;8.80;72.70;;;;;;5015077;28;20163;-71
2021/03/11 01:12:04;;;;;;;15.35;8.45;;;8.90;72.60;;;;;;5017752;28;20414;-72
2021/03/11 01:14:30;;;;;;;17.25;8.27;;;8.80;72.10;;;;;;5030723;28;20081;-72
2021/03/11 01:16:56;;;;;;;15.77;7.10;;;8.70;71.70;;;;;;5022006;28;20053;-72
2021/03/11 01:19:23;;;;;;;16.48;7.90;;;8.70;72.20;;;;;;5050097;28;20060;-72
2021/03/11 01:21:49;;;;;;;15.18;7.97;;;8.80;72.40;;;;;;5025579;28;20081;-72
2021/03/11 01:24:16;;;;;;;13.32;7.97;;;8.80;72.80;;;;;;5020993;28;20049;-72
2021/03/11 01:26:43;;;;;;;15.77;8.52;;;8.80;73.30;;;;;;5025150;28;20054;-71
2021/03/11 01:29:09;;;;;;;18.67;8.55;;;8.80;73.70;;;;;;5024475;28;20412;-72
2021/03/11 01:31:36;;;;;;;16.15;8.10;;;8.70;74.00;;;;;;5023237;28;20150;-71
2021/03/11 01:34:02;;;;;;;14.93;8.02;;;8.60;74.30;;;;;;5024448;28;20080;-71
2021/03/11 01:36:29;;;;;;;17.13;7.93;;;8.50;74.60;;;;;;5020063;28;20445;-71
2021/03/11 01:38:55;;;;;;;15.00;8.15;;;8.40;75.20;;;;;;5017064;28;20484;-71
2021/03/11 01:41:21;;;;;;;19.05;8.65;;;8.40;75.40;;;;;;5022638;28;20099;-70
2021/03/11 01:43:49;;;;;;;16.98;7.97;;;8.50;76.00;;;;;;5025737;28;20128;-72
2021/03/11 01:46:15;;;;;;;13.10;7.97;;;8.40;75.90;;;;;;5022113;28;20046;-72
2021/03/11 01:48:42;;;;;;;15.02;8.55;;;8.40;75.40;;;;;;5022939;28;20048;-71
2021/03/11 01:51:08;;;;;;;17.02;8.18;;;8.50;75.30;;;;;;5025406;28;20516;-71
2021/03/11 01:53:35;;;;;;;15.60;8.35;;;8.50;74.90;;;;;;5023812;28;20080;-71
2021/03/11 01:56:02;;;;;;;16.48;8.35;;;8.50;75.40;;;;;;5022525;28;20103;-72
2021/03/11 01:58:28;;;;;;;18.33;7.55;;;8.50;76.00;;;;;;5025587;28;20081;-71
2021/03/11 02:00:54;;;;;;;13.77;6.85;;;8.20;80.70;;;;;;5016531;28;20050;-72
2021/03/11 02:03:22;;;;;;;15.85;8.20;;;8.50;75.10;;;;;;5015660;28;20556;-72
2021/03/11 02:05:48;;;;;;;12.60;6.97;;;8.50;74.40;;;;;;5025523;28;20065;-73
2021/03/11 02:08:15;;;;;;;14.88;7.57;;;8.60;74.20;;;;;;5022577;28;20078;-71
2021/03/11 02:10:43;;;;;;;14.60;6.97;;;8.80;72.80;;;;;;5023217;28;20041;-71
2021/03/11 02:13:50;;;;;;;12.13;6.63;;;9.00;70.90;;;;;;5023940;28;20050;-70
2021/03/11 02:16:32;;;;;;;12.43;6.57;;;9.10;69.90;;;;;;5008303;28;20084;-71
2021/03/11 02:19:25;;;;;;;13.80;6.72;;;9.10;69.10;;;;;;5004579;28;20060;-71
2021/03/11 02:22:02;;;;;;;13.95;7.00;;;9.10;68.70;;;;;;5019510;28;20481;-71
2021/03/11 02:25:10;;;;;;;10.82;6.38;;;9.10;69.70;;;;;;5029376;28;20107;-72
2021/03/11 02:27:57;;;;;;;11.25;6.63;;;9.20;68.50;;;;;;5009376;28;20073;-72
2021/03/11 02:30:24;;;;;;;12.07;5.97;;;9.30;67.10;;;;;;5003466;28;20505;-71
2021/03/11 02:32:51;;;;;;;15.23;6.15;;;9.20;66.90;;;;;;5016138;28;20568;-71
2021/03/11 02:35:19;;;;;;;14.65;6.07;;;9.30;66.40;;;;;;5027625;28;20053;-72
2021/03/11 02:37:54;;;;;;;12.57;6.38;;;9.30;66.10;;;;;;5027299;28;20049;-70
2021/03/11 02:40:24;;;;;;;14.35;7.18;;;9.30;65.60;;;;;;5023418;28;20072;-71
2021/03/11 02:42:54;;;;;;;12.43;6.55;;;9.30;65.00;;;;;;5025038;28;20124;-72
2021/03/11 02:45:23;;;;;;;11.63;5.97;;;9.30;64.80;;;;;;5028140;28;20077;-72
2021/03/11 02:47:51;;;;;;;14.32;6.10;;;9.30;64.70;;;;;;5016595;28;20485;-72
2021/03/11 02:50:19;;;;;;;10.77;6.13;;;9.40;64.90;;;;;;5024717;28;20133;-71
2021/03/11 02:52:46;;;;;;;13.65;6.03;;;9.40;64.50;;;;;;5021018;28;20084;-72
2021/03/11 02:55:22;;;;;;;10.48;5.68;;;9.40;64.50;;;;;;5017142;28;20470;-72
2021/03/11 02:57:51;;;;;;;11.05;5.85;;;9.30;64.90;;;;;;5041494;28;20049;-72
2021/03/11 03:00:19;;;;;;;13.23;5.93;;;9.40;64.50;;;;;;5022145;28;20053;-72
2021/03/11 03:02:47;;;;;;;10.73;5.88;;;9.40;64.10;;;;;;5024043;28;20049;-71
2021/03/11 03:05:19;;;;;;;10.60;5.85;;;9.40;63.80;;;;;;5025230;28;20129;-71
2021/03/11 03:07:46;;;;;;;11.82;5.75;;;9.50;63.90;;;;;;5015675;28;20073;-72
2021/03/11 03:10:21;;;;;;;10.65;5.68;;;9.50;63.30;;;;;;5019957;28;20070;-71
2021/03/11 03:12:50;;;;;;;14.30;6.30;;;9.50;63.80;;;;;;5025907;28;20041;-70
2021/03/11 03:15:19;;;;;;;11.30;6.40;;;9.60;64.20;;;;;;5018875;28;20062;-73
2021/03/11 03:17:48;;;;;;;9.90;6.10;;;9.60;63.60;;;;;;5029698;28;20060;-71
2021/03/11 03:20:17;;;;;;;10.82;5.88;;;9.60;63.80;;;;;;5027538;28;20053;-71
2021/03/11 03:22:44;;;;;;;10.77;5.57;;;9.70;63.30;;;;;;5022596;28;20139;-71
2021/03/11 03:25:14;;;;;;;9.48;5.75;;;9.70;63.20;;;;;;5060083;28;20119;-73
2021/03/11 03:27:41;;;;;;;13.40;5.78;;;9.80;63.80;;;;;;5028246;28;20049;-73
2021/03/11 03:30:09;;;;;;;13.65;6.70;;;9.80;64.00;;;;;;5032279;28;20477;-72
2021/03/11 03:32:36;;;;;;;10.35;5.40;;;9.80;64.10;;;;;;5026635;28;20045;-72
2021/03/11 03:35:08;;;;;;;10.50;6.07;;;9.80;63.60;;;;;;5025715;28;20100;-72
2021/03/11 03:37:36;;;;;;;11.85;6.10;;;9.90;64.00;;;;;;5018387;28;20141;-72
2021/03/11 03:40:05;;;;;;;13.95;5.75;;;9.80;64.10;;;;;;5027370;28;20103;-71
2021/03/11 03:42:38;;;;;;;13.18;6.43;;;9.90;64.10;;;;;;5029688;28;20536;-72
2021/03/11 03:45:05;;;;;;;10.57;5.15;;;10.00;63.80;;;;;;5060319;28;20512;-72
2021/03/11 03:47:32;;;;;;;13.77;6.78;;;10.10;63.90;;;;;;5024525;28;20146;-73
2021/03/11 03:49:59;;;;;;;11.30;6.15;;;10.00;63.90;;;;;;5025025;28;20433;-72
2021/03/11 03:52:27;;;;;;;8.82;5.60;;;10.00;64.40;;;;;;5020707;28;20456;-71
2021/03/11 03:54:56;;;;;;;12.07;4.47;;;10.00;64.80;;;;;;5026405;28;20489;-71
2021/03/11 03:57:25;;;;;;;13.27;6.95;;;10.10;65.50;;;;;;5013773;28;20081;-71
2021/03/11 03:59:53;;;;;;;9.95;4.35;;;10.00;65.10;;;;;;5026482;28;20128;-72
2021/03/11 04:02:20;;;;;;;9.70;5.47;;;10.00;66.00;;;;;;5016187;28;20050;-72
2021/03/11 04:04:49;;;;;;;10.70;5.63;;;10.00;66.20;;;;;;5033435;28;20162;-72
2021/03/11 04:07:21;;;;;;;12.27;5.70;;;10.00;66.90;;;;;;5026396;28;20049;-72
2021/03/11 04:09:48;;;;;;;9.27;5.60;;;9.90;68.60;;;;;;5016316;28;20046;-73
2021/03/11 04:12:19;;;;;;;12.68;5.70;;;9.90;68.70;;;;;;5028399;28;20045;-72
2021/03/11 04:14:47;;;;;;;11.27;5.85;;;9.90;69.30;;;;;;5028445;28;20127;-73
2021/03/11 04:17:14;;;;;;;9.25;5.22;;;9.90;69.10;;;;;;5016801;28;20096;-73
2021/03/11 04:19:43;;;;;;;12.27;5.95;;;9.90;69.60;;;;;;5022782;28;20077;-72
2021/03/11 04:22:09;;;;;;;9.65;5.63;;;9.90;70.40;;;;;;5024043;28;20049;-72
2021/03/11 04:24:37;;;;;;;12.43;6.07;;;9.90;70.50;;;;;;5029400;28;20084;-73
2021/03/11 04:27:06;;;;;;;10.57;5.50;;;9.90;70.90;;;;;;5039952;28;20477;-71
2021/03/11 04:29:33;;;;;;;8.20;4.68;;;9.90;71.30;;;;;;5026821;28;20049;-71
2021/03/11 04:32:00;;;;;;;9.00;5.22;;;9.90;71.50;;;;;;5031604;28;20099;-72
2021/03/11 04:34:27;;;;;;;11.77;6.07;;;9.90;71.90;;;;;;5026898;28;20049;-72
2021/03/11 04:36:55;;;;;;;13.77;5.68;;;9.90;71.90;;;;;;5028245;28;20050;-72
2021/03/11 04:39:23;;;;;;;11.65;4.88;;;9.90;72.40;;;;;;5025031;28;20747;-73
2021/03/11 04:41:52;;;;;;;10.88;5.05;;;9.90;72.80;;;;;;5016863;28;20120;-72
2021/03/11 04:44:22;;;;;;;9.55;5.05;;;9.90;73.40;;;;;;5018639;28;20386;-71
2021/03/11 04:46:49;;;;;;;9.15;4.75;;;9.90;73.50;;;;;;5023254;28;20076;-71
2021/03/11 04:49:16;;;;;;;10.82;5.35;;;9.90;73.80;;;;;;5019141;28;20042;-71
2021/03/11 04:51:43;;;;;;;13.23;5.80;;;9.90;74.10;;;;;;5031259;28;20049;-72
2021/03/11 04:54:12;;;;;;;10.57;4.95;;;9.90;74.60;;;;;;5026871;28;21029;-71
2021/03/11 04:56:53;;;;;;;12.13;6.07;;;9.90;74.70;;;;;;5027107;28;20049;-71
2021/03/11 04:59:20;;;;;;;11.70;6.03;;;9.90;74.60;;;;;;5024855;28;20053;-71
2021/03/11 05:01:55;;;;;;;13.63;6.03;;;9.90;74.90;;;;;;5025175;28;20057;-72
2021/03/11 05:04:22;;;;;;;11.98;7.25;;;10.00;74.20;;;;;;5028411;28;20076;-73
2021/03/11 05:06:49;;;;;;;14.40;8.00;;;9.90;75.00;;;;;;5028648;28;20583;-71
2021/03/11 05:09:15;;;;;;;19.02;9.60;;;10.00;73.60;;;;;;5025095;28;20137;-72
2021/03/11 05:11:43;;;;;;;12.10;6.97;;;10.00;73.20;;;;;;5023463;28;20048;-71
2021/03/11 05:14:09;;;;;;;13.70;5.88;;;10.10;73.20;;;;;;5024278;28;20068;-72
2021/03/11 05:16:36;;;;;;;10.07;4.65;;;10.10;72.90;;;;;;5017971;28;20124;-72
2021/03/11 05:19:02;;;;;;;17.05;6.32;;;10.20;72.60;;;;;;5029220;28;20053;-71
2021/03/11 05:21:29;;;;;;;9.63;5.82;;;10.30;72.70;;;;;;5025176;28;20559;-71
2021/03/11 05:23:57;;;;;;;8.77;4.82;;;10.20;72.50;;;;;;5029935;28;20053;-71
2021/03/11 05:26:25;;;;;;;10.25;4.65;;;10.10;72.60;;;;;;5026135;28;20485;-71
2021/03/11 05:28:51;;;;;;;10.48;5.18;;;10.10;72.50;;;;;;5028449;28;20073;-71
2021/03/11 05:31:17;;;;;;;7.82;5.10;;;10.10;72.50;;;;;;5028971;28;20481;-71
2021/03/11 05:33:44;;;;;;;7.32;4.72;;;10.20;72.70;;;;;;5025844;28;20136;-72
2021/03/11 05:36:10;;;;;;;7.70;4.13;;;10.30;72.70;;;;;;5018734;28;20492;-71
2021/03/11 05:38:37;;;;;;;9.77;4.68;;;10.30;71.90;;;;;;5020865;28;20095;-72
2021/03/11 05:41:04;;;;;;;9.20;3.75;;;10.30;72.60;;;;;;5023626;28;20095;-72
2021/03/11 05:43:35;;;;;;;9.35;4.25;;;10.30;72.50;;;;;;5015195;28;20528;-73
2021/03/11 05:46:02;;;;;;;8.80;4.40;;;10.40;72.40;;;;;;5018482;28;20551;-73
2021/03/11 05:48:32;;;;;;;10.95;4.63;;;10.30;72.20;;;;;;5012574;28;20049;-72
2021/03/11 05:51:00;;;;;;;;;;;10.30;72.20;;;;;;5023873;28;20042;-73
2021/03/11 05:53:26;;;;;;;11.45;5.53;;;10.30;72.00;;;;;;5051356;28;20144;-72
2021/03/11 05:55:54;;;;;;;13.85;6.53;;;10.30;72.40;;;;;;5018761;28;20493;-73
2021/03/11 05:58:21;;;;;;;13.77;8.05;;;10.20;72.50;;;;;;5027026;28;20100;-72
2021/03/11 06:00:47;;;;;;;18.65;8.52;;;10.10;72.90;;;;;;5021127;28;20064;-72
2021/03/11 06:03:14;;;;;;;11.13;6.15;;;10.10;72.90;;;;;;5022066;28;20045;-72
2021/03/11 06:05:41;;;;;;;11.88;7.32;;;10.10;73.10;;;;;;5017530;28;20488;-71
2021/03/11 06:08:08;;;;;;;9.02;5.80;;;10.10;73.00;;;;;;5024030;28;20049;-71
2021/03/11 06:10:56;;;;;;;9.90;6.03;;;10.20;73.90;;;;;;5023820;28;20051;-72
2021/03/11 06:13:24;;;;;;;11.93;6.90;;;10.30;73.80;;;;;;5028437;28;20077;-72
2021/03/11 06:15:59;;;;;;;16.85;7.60;;;10.30;74.00;;;;;;5021852;28;20496;-72
2021/03/11 06:18:25;;;;;;;12.73;6.22;;;10.30;74.20;;;;;;5023655;28;20037;-72
2021/03/11 06:20:52;;;;;;;13.27;5.95;;;10.30;74.80;;;;;;5025226;28;20541;-72
2021/03/11 06:23:18;;;;;;;9.85;5.88;;;10.40;75.30;;;;;;5028752;28;20145;-72
2021/03/11 06:25:44;;;;;;;10.43;5.95;;;10.40;75.20;;;;;;5022014;28;20840;-72
2021/03/11 06:28:11;;;;;;;11.52;5.80;;;10.40;75.30;;;;;;5029694;28;20057;-72
2021/03/11 06:30:41;;;;;;;9.40;5.53;;;10.50;75.60;;;;;;5030992;28;20072;-71
2021/03/11 06:33:08;;;;;;;9.32;4.25;;;10.50;75.20;;;;;;5034875;28;20053;-71
2021/03/11 06:35:37;;;;;;;7.65;5.05;;;10.50;75.40;;;;;;5025546;28;20049;-73
2021/03/11 06:38:04;;;;;;;7.60;3.90;;;10.50;75.80;;;;;;5030705;28;20060;-73
2021/03/11 06:40:31;;;;;;;10.20;3.75;;;10.60;76.60;;;;;;5022514;28;20137;-75
2021/03/11 06:43:11;;;;;;;4.03;2.00;;;10.50;76.50;;;;;;5032083;28;20130;-71
2021/03/11 06:45:38;;;;;;;11.43;4.30;;;10.50;76.60;;;;;;5022821;28;20095;-72
2021/03/11 06:48:25;;;;;;;5.55;3.25;;;10.60;76.40;;;;;;5028027;28;20131;-72
2021/03/11 06:51:00;;;;;;;6.80;3.28;;;10.60;76.80;;;;;;5022580;28;20136;-71
2021/03/11 06:53:28;;;;;;;4.95;2.47;;;10.50;77.10;;;;;;5028996;28;20080;-72
2021/03/11 06:56:19;;;;;;;6.60;2.90;;;10.50;77.50;;;;;;5032622;28;20060;-71
2021/03/11 06:58:57;;;;;;;5.05;3.08;;;10.50;77.10;;;;;;5027118;28;20050;-72
2021/03/11 07:01:25;;;;;;;5.95;3.13;;;10.50;77.10;;;;;;5019464;28;20073;-73
2021/03/11 07:03:52;;;;;;;5.78;3.17;;;10.50;76.60;;;;;;5027177;28;20046;-72
2021/03/11 07:06:35;;;;;;;5.70;3.30;;;10.50;75.90;;;;;;5027587;28;20057;-72
2021/03/11 07:09:04;;;;;;;7.60;3.20;;;10.50;75.30;;;;;;5035585;28;20046;-73
2021/03/11 07:11:31;;;;;;;7.00;3.03;;;10.50;74.70;;;;;;5033321;28;20428;-73
2021/03/11 07:14:02;;;;;;;6.53;3.13;;;10.50;74.50;;;;;;5025383;28;20050;-72
2021/03/11 07:16:34;;;;;;;7.85;3.13;;;10.60;74.90;;;;;;5022537;28;20080;-71
2021/03/11 07:19:14;;;;;;;7.28;3.40;;;10.60;74.50;;;;;;5020012;28;20049;-73
2021/03/11 07:21:44;;;;;;;7.13;3.00;;;10.80;76.00;;;;;;5025323;28;20041;-72
2021/03/11 07:24:11;;;;;;;9.77;3.50;;;10.60;75.70;;;;;;5014871;28;20477;-72
2021/03/11 07:26:38;;;;;;;6.25;3.03;;;10.70;76.20;;;;;;5026641;28;20108;-73
2021/03/11 07:29:34;;;;;;;4.15;2.90;;;10.60;76.90;;;;;;5021954;28;20072;-71
2021/03/11 07:32:05;;;;;;;6.03;3.60;;;10.60;77.50;;;;;;5030116;28;20536;-71
2021/03/11 07:34:36;;;;;;;6.82;3.13;;;10.80;77.90;;;;;;5028363;28;20049;-72
2021/03/11 07:37:05;;;;;;;9.35;2.95;;;10.90;77.60;;;;;;5027507;28;20093;-72
2021/03/11 07:39:40;;;;;;;4.93;2.60;;;10.70;78.00;;;;;;5029260;28;20045;-71
2021/03/11 07:42:08;;;;;;;7.75;2.95;;;10.80;78.60;;;;;;5026134;28;20081;-73
2021/03/11 07:44:36;;;;;;;9.05;3.30;;;10.80;79.00;;;;;;5025334;28;20556;-71
2021/03/11 07:47:04;;;;;;;7.45;3.22;;;11.00;79.00;;;;;;5018243;28;20095;-72
2021/03/11 07:49:33;;;;;;;6.97;3.00;;;10.90;78.70;;;;;;5022227;28;20450;-72
2021/03/11 07:52:01;;;;;;;4.97;2.85;;;11.00;79.70;;;;;;5024357;28;20064;-72
2021/03/11 07:54:32;;;;;;;8.05;3.05;;;11.10;80.10;;;;;;5027022;28;20055;-71
2021/03/11 07:57:00;;;;;;;5.28;3.35;;;11.10;79.40;;;;;;5025040;28;20053;-72
2021/03/11 07:59:26;;;;;;;6.82;2.97;;;10.90;80.60;;;;;;5018607;28;20125;-73
2021/03/11 08:01:56;;;;;;;8.85;2.92;;;11.10;80.10;;;;;;5027436;28;20071;-72
2021/03/11 08:04:26;;;;;;;6.95;3.42;;;11.10;80.80;;;;;;5024365;28;20069;-70
2021/03/11 08:07:16;;;;;;;8.77;3.05;;;11.10;80.80;;;;;;5019451;28;20094;-71
2021/03/11 08:09:44;;;;;;;4.55;3.10;;;11.00;80.70;;;;;;5018488;28;20104;-72
2021/03/11 08:12:32;;;;;;;4.22;2.55;;;11.10;80.60;;;;;;5024405;28;20077;-72
2021/03/11 08:15:04;;;;;;;6.18;3.65;;;11.30;80.50;;;;;;5024552;28;20045;-71
2021/03/11 08:17:33;;;;;;;9.43;3.10;;;11.30;81.00;;;;;;5036205;28;20087;-72
2021/03/11 08:20:05;;;;;;;6.88;3.20;;;11.30;81.20;;;;;;5021887;28;20053;-70
2021/03/11 08:22:55;;;;;;;6.18;3.50;;;11.30;81.60;;;;;;5019833;28;20514;-73
2021/03/11 08:25:34;;;;;;;7.22;3.10;;;11.40;82.10;;;;;;5023323;28;20423;-73
2021/03/11 08:28:08;;;;;;;5.88;3.88;;;11.60;82.30;;;;;;5025840;28;20539;-73
2021/03/11 08:30:37;;;;;;;16.17;4.05;;;11.70;82.40;;;;;;5016662;28;20478;-71
2021/03/11 08:33:10;;;;;;;7.60;4.47;;;11.60;83.20;;;;;;5029188;28;20041;-72
2021/03/11 08:35:39;;;;;;;7.75;3.80;;;11.70;83.50;;;;;;5022762;28;20056;-71
2021/03/11 08:38:23;;;;;;;8.05;4.35;;;11.70;83.60;;;;;;5024044;28;20145;-71
2021/03/11 08:40:59;;;;;;;7.25;3.90;;;11.70;83.80;;;;;;5026528;28;20095;-73
2021/03/11 08:43:37;;;;;;;8.20;3.63;;;11.60;84.00;;;;;;5051481;28;20136;-71
2021/03/11 08:46:45;;;;;;;9.73;3.78;;;11.80;84.10;;;;;;5020619;28;20073;-71
2021/03/11 08:49:31;;;;;;;6.55;3.80;;;11.80;84.10;;;;;;5025208;28;20050;-72
2021/03/11 08:51:58;;;;;;;8.43;3.60;;;12.00;83.70;;;;;;5019576;28;20048;-74
2021/03/11 08:54:24;;;;;;;5.10;3.03;;;11.80;84.50;;;;;;5018009;28;20077;-71
2021/03/11 08:56:51;;;;;;;7.75;3.20;;;11.70;85.40;;;;;;5018797;28;20057;-72
2021/03/11 08:59:17;;;;;;;6.32;3.03;;;11.80;86.30;;;;;;5021274;28;20537;-71
2021/03/11 09:01:45;;;;;;;5.68;2.60;;;11.70;86.90;;;;;;5018523;28;20477;-73
2021/03/11 09:04:27;;;;;;;2.13;1.92;;;11.70;88.20;;;;;;5021280;28;20037;-72
2021/03/11 09:07:00;;;;;;;4.07;2.70;;;11.60;89.30;;;;;;5024042;28;20494;-73
2021/03/11 09:09:46;;;;;;;6.80;2.92;;;11.60;90.00;;;;;;5018324;28;20050;-72
2021/03/11 09:12:16;;;;;;;4.57;2.85;;;11.50;90.80;;;;;;5015410;28;20568;-71
2021/03/11 09:14:50;;;;;;;4.22;2.50;;;11.50;91.30;;;;;;5022259;28;20057;-72
2021/03/11 09:17:19;;;;;;;4.68;2.13;;;11.60;91.20;;;;;;5022500;28;20108;-72
2021/03/11 09:19:48;;;;;;;5.50;2.63;;;11.70;91.20;;;;;;5021457;28;20042;-73
2021/03/11 09:22:36;;;;;;;5.20;2.28;;;11.80;91.40;;;;;;5021295;28;20056;-72
2021/03/11 09:25:10;;;;;;;5.40;2.78;;;11.60;92.00;;;;;;5019660;28;20453;-72
2021/03/11 09:27:56;;;;;;;3.22;2.13;;;11.60;92.80;;;;;;5018439;28;20077;-72
2021/03/11 09:30:30;;;;;;;4.55;2.80;;;11.60;92.60;;;;;;5018900;28;20088;-72
2021/03/11 09:32:57;;;;;;;7.78;2.40;;;11.40;92.80;;;;;;5019762;28;20398;-71
2021/03/11 09:35:25;;;;;;;4.47;2.45;;;11.40;93.50;;;;;;5017037;28;20063;-73
2021/03/11 09:37:57;;;;;;;4.97;2.22;;;11.40;93.50;;;;;;5012444;28;20045;-71
2021/03/11 09:40:28;;;;;;;2.50;1.67;;;11.50;93.80;;;;;;5025043;28;20142;-72
2021/03/11 09:43:04;;;;;;;5.18;2.63;;;11.20;95.10;;;;;;5031891;28;20148;-72
2021/03/11 09:45:40;;;;;;;4.15;2.45;;;11.10;99.40;;;;;;5033219;28;20068;-73
2021/03/11 09:48:12;;;;;;;4.22;2.40;;;11.00;99.90;;;;;;5034112;28;20053;-71
2021/03/11 09:50:53;;;;;;;6.03;2.83;;;11.00;99.90;;;;;;5034597;28;20063;-71
2021/03/11 09:53:20;;;;;;;;;;;10.80;99.90;;;;;;5034366;28;20536;-71
2021/03/11 09:55:51;;;;;;;5.95;2.72;;;10.50;99.90;;;;;;5037339;28;20686;-74
2021/03/11 09:58:22;;;;;;;8.18;2.80;;;10.10;99.90;;;;;;5028068;28;20061;-72
2021/03/11 10:00:49;;;;;;;6.50;2.83;;;10.10;99.90;;;;;;5034814;28;20061;-73
2021/03/11 10:03:24;;;;;;;5.38;2.70;;;10.00;99.90;;;;;;5033913;28;20077;-72
2021/03/11 10:06:05;;;;;;;3.85;2.80;;;10.00;99.90;;;;;;5031908;28;20814;-75
2021/03/11 10:08:33;;;;;;;5.18;2.35;;;10.00;99.90;;;;;;5031972;28;20049;-75
2021/03/11 10:11:06;;;;;;;4.45;2.05;;;10.00;99.90;;;;;;5032321;28;20057;-75
2021/03/11 10:13:49;;;;;;;4.25;2.28;;;10.00;99.90;;;;;;5036533;28;20045;-75
2021/03/11 10:16:36;;;;;;;4.88;2.45;;;10.00;99.90;;;;;;5033502;28;20138;-81
2021/03/11 10:19:06;;;;;;;2.28;1.58;;;9.90;99.90;;;;;;5033846;28;20469;-76
2021/03/11 10:21:45;;;;;;;6.43;2.53;;;9.90;99.90;;;;;;5033740;28;20103;-78
2021/03/11 10:24:13;;;;;;;4.70;2.30;;;10.00;99.90;;;;;;5035209;28;20720;-76
2021/03/11 10:26:41;;;;;;;2.50;1.58;;;10.00;99.90;;;;;;5031015;28;20443;-77
2021/03/11 10:29:10;;;;;;;1.10;1.02;;;10.00;99.90;;;;;;5030132;28;20482;-77
2021/03/11 10:31:37;;;;;;;4.10;1.85;;;10.10;99.90;;;;;;5031830;28;20150;-76
2021/03/11 10:34:08;;;;;;;4.78;1.92;;;10.10;99.90;;;;;;5035227;28;20191;-76
2021/03/11 10:36:36;;;;;;;5.65;2.35;;;10.10;99.90;;;;;;5035248;28;20541;-77
2021/03/11 10:39:14;;;;;;;5.43;2.50;;;10.20;99.90;;;;;;5063592;28;20155;-73
2021/03/11 10:42:02;;;;;;;4.55;2.40;;;10.30;99.90;;;;;;5032181;28;20081;-73
2021/03/11 10:44:32;;;;;;;3.95;2.33;;;10.40;99.90;;;;;;5033826;28;20148;-72
2021/03/11 10:47:16;;;;;;;3.72;2.13;;;10.50;99.90;;;;;;5034981;28;20054;-72
2021/03/11 10:49:43;;;;;;;6.68;3.75;;;10.40;99.90;;;;;;5035431;28;20108;-72
2021/03/11 10:52:11;;;;;;;4.32;2.35;;;10.50;99.90;;;;;;5029615;28;20111;-73
2021/03/11 10:54:41;;;;;;;3.22;1.80;;;10.50;99.90;;;;;;5035719;28;20057;-72
2021/03/11 10:57:20;;;;;;;5.63;2.10;;;10.60;99.90;;;;;;5031242;28;20053;-72
2021/03/11 10:59:52;;;;;;;5.28;2.20;;;10.80;99.90;;;;;;5034410;28;20395;-72
2021/03/11 11:02:20;;;;;;;16.48;6.68;;;10.90;99.90;;;;;;5034574;28;20053;-72
2021/03/11 11:04:47;;;;;;;5.35;1.17;;;11.00;99.90;;;;;;5032920;28;20053;-72
2021/03/11 11:07:15;;;;;;;3.60;1.73;;;11.20;99.90;;;;;;5039965;28;20053;-71
2021/03/11 11:09:43;;;;;;;5.40;2.10;;;11.30;99.90;;;;;;5036072;28;21379;-73
2021/03/11 11:12:16;;;;;;;4.30;2.13;;;11.20;99.90;;;;;;5036592;28;20053;-72
2021/03/11 11:14:43;;;;;;;3.35;2.15;;;11.30;99.90;;;;;;5038600;28;21238;-71
2021/03/11 11:17:11;;;;;;;3.50;2.28;;;11.40;99.90;;;;;;5030199;28;20104;-76
2021/03/11 11:19:40;;;;;;;2.67;1.73;;;11.40;99.90;;;;;;5019305;28;20084;-74
2021/03/11 11:22:08;;;;;;;3.60;1.60;;;11.30;99.90;;;;;;5024632;28;20111;-74
2021/03/11 11:24:37;;;;;;;4.40;1.98;;;11.30;99.90;;;;;;5023806;28;20091;-76
2021/03/11 11:27:04;;;;;;;6.45;2.30;;;11.20;99.90;;;;;;5031908;28;20095;-74
2021/03/11 11:29:31;;;;;;;4.03;2.05;;;11.30;99.90;;;;;;5020264;28;20100;-75
2021/03/11 11:31:57;;;;;;;5.68;1.90;;;11.30;99.90;;;;;;5020681;28;20065;-74
2021/03/11 11:34:24;;;;;;;3.58;1.90;;;11.50;99.90;;;;;;5028514;28;20547;-75
2021/03/11 11:36:50;;;;;;;2.80;1.80;;;11.50;99.90;;;;;;5026569;28;20416;-74
2021/03/11 11:39:17;;;;;;;4.93;1.83;;;11.60;99.90;;;;;;5016262;28;20062;-76
2021/03/11 11:41:44;;;;;;;3.25;1.70;;;11.90;99.90;;;;;;5030566;28;20100;-75
2021/03/11 11:44:11;;;;;;;3.88;2.00;;;11.80;99.90;;;;;;5026321;28;20074;-74
2021/03/11 11:46:38;;;;;;;3.47;1.50;;;11.90;99.90;;;;;;5021227;28;20074;-74
2021/03/11 11:49:05;;;;;;;7.97;1.90;;;11.80;99.90;;;;;;5055754;28;20129;-75
2021/03/11 11:51:32;;;;;;;3.70;1.42;;;12.10;99.90;;;;;;5020556;28;20049;-76
2021/03/11 11:53:58;;;;;;;2.58;1.75;;;12.20;99.90;;;;;;5053266;28;20065;-79
2021/03/11 11:56:24;;;;;;;3.08;1.70;;;12.10;99.90;;;;;;5022063;28;20124;-73
2021/03/11 11:58:51;;;;;;;7.35;2.10;;;12.10;99.90;;;;;;5018734;28;20408;-74
2021/03/11 12:01:18;;;;;;;3.28;1.50;;;12.10;99.90;;;;;;5031066;28;20073;-74
2021/03/11 12:03:44;;;;;;;4.82;1.33;;;12.20;99.90;;;;;;5019867;28;20044;-73
2021/03/11 12:06:11;;;;;;;2.80;1.48;;;12.20;99.90;;;;;;5037866;28;20053;-74
2021/03/11 12:08:38;;;;;;;1.90;1.38;;;12.20;99.90;;;;;;5034932;28;20166;-76
2021/03/11 12:11:06;;;;;;;2.13;1.63;;;12.20;99.90;;;;;;5034000;28;20056;-74
2021/03/11 12:13:32;;;;;;;2.60;1.83;;;12.20;99.90;;;;;;5037479;28;20135;-74
2021/03/11 12:15:59;;;;;;;2.47;1.55;;;12.30;99.90;;;;;;5035440;28;20049;-74
2021/03/11 12:18:26;;;;;;;1.98;1.48;;;12.40;99.90;;;;;;5033682;28;20084;-74
2021/03/11 12:20:52;;;;;;;1.70;1.50;;;12.40;99.90;;;;;;5031891;28;20056;-74
2021/03/11 12:23:18;;;;;;;2.10;1.70;;;12.40;99.90;;;;;;5032292;28;20175;-74
2021/03/11 12:25:45;;;;;;;3.10;1.17;;;12.40;99.90;;;;;;5036439;28;20072;-74
2021/03/11 12:28:11;;;;;;;2.35;1.60;;;12.40;99.90;;;;;;5036298;28;20131;-73
2021/03/11 12:30:37;;;;;;;1.75;1.00;;;12.40;99.90;;;;;;5035482;28;20073;-74
2021/03/11 12:33:04;;;;;;;2.85;1.50;;;12.40;99.90;;;;;;5035073;28;20408;-75
2021/03/11 12:35:32;;;;;;;2.47;1.65;;;12.50;99.90;;;;;;5032858;28;20063;-74
2021/03/11 12:37:58;;;;;;;3.42;1.50;;;12.60;99.90;;;;;;5037141;28;20546;-74
2021/03/11 12:40:25;;;;;;;2.13;1.27;;;12.70;99.90;;;;;;5035284;28;20459;-76
2021/03/11 12:42:52;;;;;;;5.63;1.83;;;12.70;99.90;;;;;;5038477;28;20089;-75
2021/03/11 12:45:21;;;;;;;2.53;1.58;;;12.80;99.90;;;;;;5033558;28;20084;-75
2021/03/11 12:47:48;;;;;;;4.47;1.85;;;12.80;99.90;;;;;;5035933;28;20488;-75
2021/03/11 12:50:16;;;;;;;3.63;2.40;;;12.80;99.90;;;;;;5033531;28;20049;-76
2021/03/11 12:52:43;;;;;;;2.85;2.05;;;12.90;99.90;;;;;;5038752;28;20064;-75
2021/03/11 12:55:10;;;;;;;3.45;2.88;;;13.00;99.90;;;;;;5032317;28;20060;-74
2021/03/11 12:57:37;;;;;;;4.40;1.25;;;13.30;99.90;;;;;;5028755;28;20088;-75
2021/03/11 13:00:09;;;;;;;6.47;1.55;;;13.80;97.20;;;;;;5032981;28;20059;-74